EmailTwitter


Observations de surface / Europe / LIRF (16242)

Régions: Québec | Canada | États-Unis | Europe | France | UK | Ailleurs
Station
Affichage
Infos & localisation pour LIRF (16242) | Aide pour décoder les METARs

Observations prises le 2020-09-21 à 13H20 UTC (LIRF)

Etat du ciel: ciel variable.

Température: 27.0 Celsius

Point de rosée: 20.0 Celsius

Humidité relative: 66%

Indice Humidex: 35.

Vents: Sud à 19 km/h ou 10 noeuds.

Pression au niveau moyen de la mer: 101.50 kilopascals.

Visibilité horizontale: 6.21 milles terrestres ou 9.94 kilomètres.

Observation METAR:

LIRF 211320Z 19010KT 160V220 9999 SCT028 27/20 Q1015 NOSIG=